• Back
  •  
  • Position of Reservoir Gates
S.No.
No. of opened gates
Position of opening (In m)
Reporting Date
Reporting Time
Discharge in Cumecs
Discharge in Cusecs
Actual date and time of Gate opening
1
2
3
4
5
6
7
8
1 3 1 19/08/2020 7:00:03 AM 357 12607.45
2 5 0.8 19/08/2020 11:00:00 AM 487 17198.4
3 5 0.8 19/08/2020 11:00:00 AM 487 17198.4
4 2 1 20/08/2020 8:00:00 AM 240 8475.6
5 1 0.1 04/10/2021 8:00:00 PM 14 494.41
6 1 0.1 05/10/2021 8:00:00 AM 14 494.41 5.10.21 8am
7 1 0.1 06/10/2021 8:00:00 AM 14 494.41 6.10.21 8am
8 1 0.1 07/10/2021 8:00:00 AM 14 494.41 7.10.21 8am
9 1 21 07/10/2021 4:00:00 PM 21 741.62
10 1 0.15 07/10/2021 4:10:00 PM 21 741.62
11 1 0.15 09/10/2021 8:00:00 AM 21 741.62
12 1 0.5 21/08/2020 8:00:00 AM 61 2154.21
13 5 0.7 22/08/2020 7:30:00 AM 490 17304.35 2 gate opening - 1 m 3 gate opening - 0.5 m
14 5 0.8 22/08/2020 8:00:00 PM 493 17410.29
15 1 0.5 23/08/2020 8:00:00 AM 62 2189.53
16 0 0 23/08/2020 4:00:00 PM 0 0
17 1 0.5 24/08/2020 8:00:00 AM 63 2224.84
18 0 0 24/08/2020 4:20:00 PM 0 0 All gates are closed
19 1 0.15 10/10/2021 8:00:00 AM 21 741.62
20 1 15 11/10/2021 8:00:00 AM 21 741.62 11.10.21 8am
21 1 0.15 11/10/2021 8:00:00 AM 21 741.62 11.10.21 8am
22 1 0.1 11/10/2021 4:00:00 PM 14 494.41
23 1 0.1 12/10/2021 8:00:00 AM 14 494.41 12.10.21 8am
24 1 0.1 14/10/2021 12:00:00 PM 14 494.41 14.10.21 12pm
25 0 0 14/10/2021 4:00:00 PM 0 0
26 3 0.67 27/08/2020 4:25:00 PM 190 6709.85 1 Gate 1m & 2 Gate0.50m
27 3 0.67 28/08/2020 12:00:00 AM 190 6709.85
28 3 1.16 28/08/2020 8:00:00 AM 259 9146.58 2 Gates opened 1.0 M 1 Gates opened 1.5 M Total 3 Gates opened on dated 27/08/2020 since 8:0 PM
29 3 1.16 28/08/2020 8:00:00 AM 449 15856.43 due to wrong discharge Revised entry
30 5 0.9 28/08/2020 4:10:00 PM 580 20482.7
31 5 1.3 28/08/2020 7:00:00 PM 709 25038.33
32 5 1.3 29/08/2020 12:00:00 AM 709 25038.33 Actual Date of Gate Opening 28.08.2020 & Time 7.00 PM
33 7 1.14 29/08/2020 11:57:00 AM 1029 36339.13 1) 2 Gates @ 1.75 M 2) 2 Gates @ 1.00 M 3) 2 Gates @ 0.50 M 4) 1 Gates @ 1.0 M
34 7 0.67 30/08/2020 12:00:00 AM 1029 36339.13 Gates opened on dated 29.08.2020 at 12.00PM
35 5 1.5 30/08/2020 12:00:00 PM 842 29735.23
36 5 1 30/08/2020 8:00:00 AM 842 29735.23
37 2 0.25 30/08/2020 4:00:00 PM 64 2260.16
38 2 0.5 30/08/2020 8:00:00 PM 131 4626.26
39 2 0.5 31/08/2020 12:00:00 AM 131 4626.26 Gates Opened on Dated 30.08.2020 at 8.00 PM
40 1 0.75 01/09/2020 12:00:00 AM 99 3496.18 31/08/2020 12.00 PM
41 1 0.25 03/09/2020 12:00:00 AM 33 1165.39
42 1 0.25 04/09/2020 12:00:00 AM 33 1165.39
43 1 0.25 05/09/2020 12:00:00 AM 34 1200.71 04/09/2020 8.00 PM
44 1 0.25 06/09/2020 12:00:00 AM 35 1236.02 05/09/2020 8.00PM
45 1 0.25 06/09/2020 4:00:00 PM 35 1236.02
46 1 0.25 08/09/2020 12:00:00 AM 35 1236.02
47 1 0.25 07/09/2020 12:00:00 AM 35 1236.02
48 1 0.25 09/09/2020 12:00:00 AM 35 1236.02
49 1 0.25 10/09/2020 12:00:00 AM 35 1236.02
50 2 0.5 25/09/2020 12:00:00 AM 140 4944.1
51 1 0.5 25/09/2020 4:00:00 PM 70 2472.05
52 0 0 25/09/2020 8:00:00 AM 0 0 Gate is closed
53 0 0 25/09/2020 8:00:00 PM 0 0 Gate is closed
54 1 0.15 30/09/2020 4:00:00 PM 20 706.3
55 1 0.15 01/10/2020 8:00:00 AM 20 706.3
56 1 0.2 02/10/2020 8:00:00 AM 28.32 1000.12
57 1 0.2 03/10/2020 8:00:00 AM 28.32 1000.12
58 1 0.15 04/10/2020 8:00:00 AM 21.15 746.91
59 1 0.1 05/10/2020 12:00:00 PM 14.17 500.41
60 1 0.05 06/10/2020 4:00:00 PM 7 247.2
61 1 0.05 06/10/2020 8:00:00 PM 7 247.2
62 1 0.05 07/10/2020 8:00:00 PM 7.8 275.46
63 1 0.05 08/10/2020 12:00:00 PM 7.8 275.46
64 1 0.05 09/10/2020 12:00:00 PM 7.8 275.46
65 1 1 10/10/2020 12:00:00 AM 87.76 3099.24
66 1 0.05 11/10/2020 8:00:00 AM 7.8 275.46
67 1 0.05 12/10/2020 12:00:00 PM 7.8 275.46
68 1 0.05 13/10/2020 12:00:00 PM 7.8 275.46
69 3 0.25 06/08/2021 4:00:00 PM 100 3531.5
70 3 0.75 06/08/2021 8:00:00 PM 263.2 9294.91
71 3 0.75 07/08/2021 8:00:00 AM 263.2 9294.91 07/08/2021
72 5 0.9 07/08/2021 12:00:00 PM 535.5 18911.18 07/08/2021
73 2 0.5 08/08/2021 8:00:00 AM 120.3 4248.39 08/08/2021
74 2 0.5 08/08/2021 12:00:00 PM 120.3 4248.39 08/08/2021
75 2 0.5 09/08/2021 8:00:00 AM 120.3 09/08/2021
76 0 0 09/08/2021 12:00:00 PM 0 0 09/08/2021
77 1 0.5 10/08/2021 8:00:00 AM 61.7 2178.94 10/08/2021
78 1 0.25 10/08/2021 4:00:00 PM 31.78 1122.31
79 1 0.25 11/08/2021 8:00:00 AM 31.78 1122.31 11/08/2021
80 0 0 11/08/2021 12:00:00 PM 0 0 Gate Closed
81 1 0.75 21/08/2021 8:00:00 AM 100.7 3556.22
82 1 0.5 23/08/2021 8:00:00 AM 67.78 2393.65 23/08/2021
83 1 0.5 24/08/2021 8:00:00 AM 67.78 2393.65 24/08/2021
84 0 0 24/08/2021 12:00:00 PM 0 0 24/08/2021 Gate Closed
85 1 0.25 10/09/2021 8:00:00 AM 35.41 1250.5
86 1 0.25 10/09/2021 12:00:00 PM 35.41 1250.5
87 1 0.25 10/09/2021 8:00:00 AM 35.41 1250.5 10/09/2021 8.00PM
88 1 0.25 11/09/2021 8:00:00 AM 35.41 1250.5
89 1 0.5 11/09/2021 8:00:00 AM 70.5 2489.71
90 1 0.5 11/09/2021 8:00:00 AM 70.5 2489.71
91 1 0.5 13/09/2021 4:00:00 PM 70 2472.05
92 1 0.5 14/09/2021 8:00:00 AM 70 2472.05 14.9.21 8am
93 1 0.5 14/09/2021 12:00:00 PM 70 2472.05 14.9.21 12 am
94 1 0.5 15/09/2021 8:00:00 AM 70 2472.05 15/09/2021
95 1 0.5 15/09/2021 12:00:00 PM 70 2472.05 15.9.21 12 am
96 2 0.5 16/09/2021 8:00:00 AM 140 4944.1 16/09/2021
97 4 0.75 16/09/2021 4:00:00 PM 140 4944.1
98 2 0.5 16/09/2021 5:00:00 PM 140 4944.1
99 2 0.5 17/09/2021 8:00:00 AM 140 4944.1 17/09/2021
100 2 0.5 18/09/2021 8:00:00 AM 70 2472.05 18/09/2021
101 1 0.5 18/09/2021 12:00:00 PM 70 2472.05
102 1 0.1 19/09/2021 8:00:00 AM 14 494.41
103 1 0.25 21/09/2021 8:00:00 PM 35 1236.02
104 1 0.25 22/09/2021 8:00:00 AM 35 1236.02 22/09/2021
105 1 0.25 23/09/2021 8:00:00 AM 35 1236.02 23/09/2021
106 1 0.25 24/09/2021 8:00:00 AM 35 1236.02 24.9.21 8am
107 1 0.5 25/09/2021 8:00:00 AM 35 1236.02
108 1 0.25 25/09/2021 12:00:00 PM 35 1236.02
109 1 0.25 26/09/2021 8:00:00 AM 35 1236.02
110 1 0.25 27/09/2021 8:00:00 AM 35 1236.02 27.9.21 8am
111 1 0.25 28/09/2021 8:00:00 AM 35 1236.02 28/09/2021
112 1 0.25 29/09/2021 8:00:00 AM 35 1236.02 29.9.21 8am
113 1 0.15 29/09/2021 4:00:00 PM 21 741.62
114 1 0.15 30/09/2021 8:00:00 AM 21 741.62 30/09/2021
115 0 0 24/08/2018 6:00:00 PM 0 0 all gates are closed at 6 pm
116 5 2 30/08/2018 7:30:00 AM 1200 42378
117 5 1.5 24/08/2018 12:00:00 PM 800 28252
118 0 0 24/08/2018 6:00:00 PM 0 0 all gates are closed at 6 pm
119 5 2.7 02/09/2018 9:00:00 AM 1600 56504
120 0 0 30/08/2018 9:40:00 PM 0 0 all gates are closed at 9:40pm today
121 5 2.5 06/09/2018 12:00:00 PM 1455 51383.32
122 2 1.5 04/09/2018 1:00:00 PM 340 12007.1
123 6 2 31/08/2018 6:30:00 PM 1400 49441
124 5 2 01/09/2018 8:00:00 AM 1105 39023.07 Bansujara Dam 5 gates has been opened since 10:00 AM Today.
125 5 2 01/09/2018 10:00:00 AM 1105 39023.07
126 5 1.5 01/09/2018 2:00:00 PM 850 30017.75 Bansujara Dam 5 gates has been opened 2PM Today.
127 2 0.5 01/09/2018 6:30:00 PM 120 4237.8
128 2 1 04/09/2018 8:02:05 AM 232 8193.08
129 2 0.5 02/09/2018 4:00:00 PM 120 4237.8
130 2 0.5 03/09/2018 12:01:00 AM 120 4237.8 each gate opening 0.50m since 2/9/2018 (4:0pm)
131 2 0.3 03/09/2018 8:00:00 PM 60 2118.9
132 2 1 04/09/2018 8:00:00 AM 100 3531.5
133 0 0 04/09/2018 6:30:00 PM 0 0 all gates are closed at 6:30 pm
134 5 2.5 06/09/2018 8:00:00 AM 1500 52972.5
135 5 2.5 06/09/2018 4:00:00 PM 1430 50500.45
136 5 2 06/09/2018 6:30:00 PM 1140 40259.1
137 2 1 09/09/2018 4:30:00 AM 240 8475.6
138 2 2 09/09/2018 6:30:00 PM 472 16668.68
139 2 2 10/09/2018 12:01:00 AM 472 16668.68 gate opening since 9/9/2018 at 6:30 pm
140 2 0.5 10/09/2018 12:01:00 AM 122 4308.43 each gate opening 0.5m since9/9/2018 at 10pm
141 4 2.5 10/09/2018 7:00:00 PM 1160 40965.4
142 4 2.5 11/09/2018 12:01:00 AM 1160 40965.4 each gate opening 2.50 since 10/9/2018 (7:0pm)
143 0 0 12/09/2018 8:00:00 AM 0 0 all gates are closed
144 0 0 12/09/2018 4:10:00 PM 0 0
145 4 2 13/09/2018 1:00:00 PM 952 33619.88
146 0 0 13/09/2018 7:00:00 PM 0 0
147 12 1 01/07/2019 6:00:00 PM 500 17657.5
148 12 0 01/07/2019 9:00:00 PM 0 0
149 0 0 01/07/2019 9:00:00 PM 0 0
150 12 1 02/07/2019 12:01:00 AM 500 17657.5 all gates are opened 1.0 m each since 01.07.2019 at 6pm
151 12 1.5 02/07/2019 8:00:00 AM 100 3531.5
152 12 1.5 02/07/2019 10:45:00 AM 15 529.72
153 12 1.5 02/07/2019 12:40:00 PM 15 529.72
154 12 1.5 02/07/2019 2:45:00 AM 10 353.15
155 12 1.5 02/07/2019 2:45:00 AM 10 353.15
156 12 1.5 03/07/2019 8:30:00 AM 10 353.15
157 12 1.5 05/07/2019 12:01:00 AM 10 353.15
158 12 1.5 06/07/2019 5:00:00 AM 10 353.15
159 12 1.5 07/07/2019 8:00:00 AM 10 353.15
160 12 1.5 08/07/2019 5:15:00 AM 10 353.15
161 12 1.5 09/07/2019 8:00:00 AM 109 3849.33
162 12 1.5 10/07/2019 8:00:00 AM 139 4908.78
163 12 1.5 10/07/2019 8:30:00 AM 109 3849.33
164 12 1.5 11/07/2019 12:01:00 AM 109 3849.33
165 12 1.5 12/07/2019 12:01:00 AM 109 3849.33
166 12 1.5 13/07/2019 12:01:00 AM 109 3849.33
167 12 1.5 14/07/2019 12:01:00 AM 109 3849.33
168 12 1.5 14/07/2019 12:10:00 PM 109 3849.33
169 12 1.5 15/07/2019 12:01:00 AM 109 3849.33
170 12 1.5 15/07/2019 8:35:00 AM 109 3849.33
171 12 1.5 16/07/2019 12:01:00 AM 109 3849.33
172 12 1.5 16/07/2019 8:00:00 AM 10 353.15
173 0 0 16/07/2019 4:55:00 PM 0 0 all gates are closed
174 3 0.5 09/08/2019 5:00:00 PM 180 6356.7
175 3 0.5 10/08/2019 12:16:09 AM 180 6356.7
176 3 0.3 10/08/2019 1:00:00 PM 93 3284.29
177 3 0.3 11/08/2019 6:53:00 AM 93 3284.29
178 0 0 11/08/2019 1:00:00 PM 0 0 all gates are closed
179 7 1.1 14/08/2019 4:30:00 PM 1000 35315
180 5 1 14/08/2019 10:30:00 AM 700 24720.5
181 7 1.1 15/08/2019 4:30:00 AM 1000 35315
182 10 1.6 15/08/2019 7:00:00 AM 2000 70630
183 12 2 15/08/2019 3:00:00 PM 2800 98882
184 2 0.5 16/08/2019 8:40:00 AM 570 20129.55
185 1 0.5 16/08/2019 4:00:00 PM 60 2118.9
186 0 0 16/08/2019 7:00:00 PM 0 0 All gates are closed
187 1 0.3 17/08/2019 8:00:00 AM 30 1059.45
188 3 1 17/08/2019 3:30:00 PM 351 12395.56
189 3 1 18/08/2019 12:37:00 AM 351 12395.56
190 0 0 21/08/2019 9:00:00 AM 0 0 All gates are closed at 9.00 am
191 3 1.66 22/08/2019 9:00:00 AM 611 21577.47
192 0 0 18/08/2019 8:00:00 AM 0 0 all gates are closed
193 5 1 20/08/2019 8:00:00 AM 844 29805.86
194 5 1 20/08/2019 9:00:00 AM 844 29805.86
195 5 0.76 20/08/2019 1:00:00 PM 455 16068.32
196 3 0.5 21/08/2019 8:48:00 AM 180 6356.7
197 3 1.66 23/08/2019 12:01:00 AM 611 21577.47
198 1 0.5 23/08/2019 6:00:00 AM 62 2189.53
199 2 0.5 23/08/2019 3:00:00 PM 120 4237.8
200 2 0.5 24/08/2019 12:07:00 AM 120 4237.8
201 3 0.5 24/08/2019 11:00:00 AM 186 6568.59
202 3 0.5 25/08/2019 12:01:00 AM 186 6568.59
203 8 1.75 25/08/2019 5:30:00 AM 1725 60918.37
204 4 1 25/08/2019 4:30:00 PM 360 12713.4
205 4 1.5 26/08/2019 12:10:00 AM 360 12713.4
206 6 1 26/08/2019 6:00:00 AM 760 26839.4
207 4 1.25 27/08/2019 12:01:00 AM 620 21895.3
208 10 2 27/08/2019 8:00:00 AM 2366 83555.29
209 6 1 27/08/2019 1:00:00 PM 766 27051.29
210 6 1 28/08/2019 12:01:00 AM 766 27051.29
211 4 0.75 28/08/2019 12:00:00 PM 360 12713.4
212 4 0.75 29/08/2019 12:01:00 AM 360 12713.4
213 4 1.25 29/08/2019 11:30:00 AM 336 11865.84
214 6 1 30/08/2019 7:00:00 PM 711 25108.97
215 0 0 29/08/2019 6:00:00 PM 0 0 All gates are closed
216 1 1 31/08/2019 12:01:00 AM 711 25108.97
217 0 0 31/08/2019 3:00:00 PM 0 0
218 0 0 31/08/2019 3:00:00 PM 0 0
219 4 0.75 05/09/2019 8:10:00 AM 392 13843.48
220 8 1.25 05/09/2019 11:00:00 AM 1287 45450.4
221 2 0.5 05/09/2019 3:00:00 PM 129 4555.63
222 2 0.5 06/09/2019 12:01:00 AM 129 4555.63 gate opening since 5/9/2019 at 3:0pm
223 4 1.75 06/09/2019 10:10:00 AM 890 31430.35
224 4 1.5 06/09/2019 8:00:00 AM 637 22495.65
225 2 0.5 06/09/2019 8:50:00 PM 128 4520.32
226 1 0.25 07/09/2019 11:15:00 AM 30 1059.45
227 2 0.25 08/09/2019 8:00:00 AM 64 2260.16
228 2 1 08/09/2019 6:00:00 PM 280 9888.2
229 2 1.5 09/09/2019 3:00:00 AM 380 13419.7
230 8 1.75 09/09/2019 12:00:00 PM 1742 61518.73
231 10 2 09/09/2019 8:00:00 AM 2600 91819
232 10 2 09/09/2019 4:05:00 PM 2493 88040.29
233 12 2.25 09/09/2019 7:00:00 PM 3355 118481.82
234 2 2.5 10/09/2019 8:00:00 AM 1190 42024.85
235 4 1 10/09/2019 4:00:00 PM 489 17269.03
236 4 1 11/09/2019 6:00:00 AM 489 17269.03
237 6 1.67 12/09/2019 9:00:00 AM 1280 45203.2
238 8 3 13/09/2019 10:40:00 AM 2900 102413.5
239 8 3 13/09/2019 6:30:00 AM 2900 102413.5
240 4 2.5 14/09/2019 3:00:00 PM 1072 37857.68
241 6 2.5 13/09/2019 4:00:00 PM 1780 62860.7
242 4 2.5 14/09/2019 3:00:00 PM 1072 37857.68
243 2 0.25 15/09/2019 9:00:00 AM 62 2189.53
244 4 2.5 17/09/2019 8:00:00 AM 1214 42872.41
245 4 2.5 18/09/2019 12:01:00 AM 1217 42978.35 gate opening since 17/9/2019at5:30 pm
246 2 2 19/09/2019 8:30:00 AM 479 16915.88
247 4 2 19/09/2019 8:00:00 PM 987 34855.9
248 4 2.5 18/09/2019 8:00:00 AM 1202 42448.63
249 2 1 18/09/2019 8:00:00 PM 242 8546.23
250 4 2 20/09/2019 12:01:00 AM 987 34855.9
251 1 0.5 20/09/2019 9:00:00 AM 61 2154.21
252 0 0 21/09/2019 9:00:00 AM 0 0 All Gates are closed.
253 2 0.5 22/09/2019 10:00:00 AM 124 4379.06
254 4 2 23/09/2019 8:00:00 PM 954 33690.51
255 2 1 25/09/2019 12:01:00 AM 243 8581.55
256 2 1 28/09/2019 8:00:00 AM 248 8758.12
257 4 2 24/09/2019 12:01:00 AM 954 33690.51
258 6 2 23/09/2019 8:00:00 AM 1468 51842.42
259 10 2 22/09/2019 4:00:00 PM 246 8687.49
260 10 2 23/09/2019 1:03:00 AM 2468 87157.42
261 2 1 25/09/2019 8:00:00 AM 247 8722.81
262 2 1 26/09/2019 12:01:00 AM 247 8722.81
263 2 1 24/09/2019 8:30:00 AM 243 8581.55
264 8 2 26/09/2019 4:00:00 PM 2460 86874.9
265 8 2.5 26/09/2019 8:00:00 PM 2460 86874.9
266 8 2.5 27/09/2019 12:01:00 AM 2460 86874.9
267 2 1.5 27/09/2019 8:00:00 AM 352 12430.88
268 2 1 27/09/2019 4:00:00 PM 246 8687.49
269 2 1 28/09/2019 12:01:00 AM 246 8687.49
270 2 2 28/09/2019 4:00:00 PM 488 17233.72
271 2 2 29/09/2019 12:30:00 AM 488 17233.72
272 2 1 29/09/2019 9:00:00 AM 245 8652.17
273 2 1.5 29/09/2019 9:00:00 PM 450 15891.75
274 2 1 29/09/2019 11:00:00 AM 245 8652.17
275 2 1.5 30/09/2019 12:01:00 AM 450 15891.75
276 2 1 30/09/2019 9:00:00 PM 250 8828.75
277 2 0.25 05/10/2019 12:30:00 PM 130 4590.95
278 2 1 04/10/2019 8:15:00 AM 256 9040.64
279 2 1 04/10/2019 12:00:00 PM 256 9040.64
280 2 0.5 05/10/2019 8:00:00 AM 260 9181.9
281 1 0.5 06/10/2019 9:15:00 AM 65 2295.47
282 1 0.5 07/10/2019 8:00:00 AM 65 2295.47
Powered by © Water Resources Department (MP). All Rights Reserved.